Norwich, CT

7:21 AM EST on January 26, 2015 (GMT -0500)
Kimball Road | Change Station
CLOSE
Current Station
Personal Weather Station
Location: Lisbon, CT
Elevation: 404 ft
Nearby Weather Stations
Active Advisory: Blizzard Warning

Elev 404 ft 41.64 °N, 72.01 °W | Updated 8 minutes ago

Overcast
Overcast
14.9 °F
Feels Like 15 °F
N
2.7
Wind Variable Wind from SSE

Today
High -- | Low -- °F
--% Chance of Precip.
Yesterday
High -- | Low -- °F
Precip. -- in
7:05 AM 4:55 PM
Waxing Crescent, 42% visible
Pressure 30.10 in
Visibility 10.0 miles
Clouds Overcast 8500 ft
Windchill 15 °F
Dew Point -1 °F
Humidity 48%
Rainfall 0.00 in
Snow Depth Not available.
UV 0 out of 12
Pollen .10 out of 12
Air Quality Not available.
Flu Activity Not available.
METAR KIJD 261152Z AUTO 05012KT 10SM OVC085 M08/M17 A3009 RMK AO2 SLP192 T10781167 11067 21078 53009 $

More Conditions Fewer Conditions

Pressure 30.10 in
Visibility 10.0 miles
Clouds Overcast 8500 ft
Windchill 15 °F
Dew Point -1 °F
Humidity 48%
Rainfall 0.00 in
Snow Depth Not available.
UV 0 out of 12
Pollen .10 out of 12
Air Quality Not available.
Flu Activity Not available.
METAR KIJD 261152Z AUTO 05012KT 10SM OVC085 M08/M17 A3009 RMK AO2 SLP192 T10781167 11067 21078 53009 $

More Conditions Fewer Conditions

10-Day Weather Forecast

Almanac

Astronomy

Jan. 26, 2015 Rise Set
Actual Time
Civil Twilight
Nautical Twilight
Astronomical Twilight
Moon
Length of Visible Light
Length of Day
Tomorrow will be .
, % of the Moon is Illuminated

Today's Extremes

State Highs State Lows

Community

WunderPhotos

Upload Photos

1,790,175 photos uploaded!

WunderBlogs® & News

Nearby

Air Quality

  Air Quality AQ Index Pollutant
Not available.

Snow Depth

Station Depth Elevation

Earthquake Activity

City Distance Mag. Time & Date
Minimum magnitude displayed is 2.5.

Coastal Water Temperatures

Place Temperature

Nearby Weather Stations